sensor_id;sensor_type;location;lat;lon;timestamp;P1;durP1;ratioP1;P2;durP2;ratioP2
65373;SDS011;52070;53.760;9.678;2023-01-16T00:01:48;4.53;;;3.35;;
65373;SDS011;52070;53.760;9.678;2023-01-16T00:04:16;5.40;;;3.45;;
65373;SDS011;52070;53.760;9.678;2023-01-16T00:06:43;6.22;;;3.80;;
65373;SDS011;52070;53.760;9.678;2023-01-16T00:09:11;8.05;;;3.78;;
65373;SDS011;52070;53.760;9.678;2023-01-16T00:11:38;7.65;;;3.47;;
65373;SDS011;52070;53.760;9.678;2023-01-16T00:14:05;8.35;;;3.72;;
65373;SDS011;52070;53.760;9.678;2023-01-16T00:16:32;9.30;;;3.47;;
65373;SDS011;52070;53.760;9.678;2023-01-16T00:18:59;8.23;;;4.20;;
65373;SDS011;52070;53.760;9.678;2023-01-16T00:21:26;5.65;;;3.50;;
65373;SDS011;52070;53.760;9.678;2023-01-16T00:23:53;5.35;;;3.63;;
65373;SDS011;52070;53.760;9.678;2023-01-16T00:26:22;5.55;;;3.85;;
65373;SDS011;52070;53.760;9.678;2023-01-16T00:28:49;8.80;;;4.07;;
65373;SDS011;52070;53.760;9.678;2023-01-16T00:31:16;10.15;;;4.47;;
65373;SDS011;52070;53.760;9.678;2023-01-16T00:33:44;7.70;;;4.07;;
65373;SDS011;52070;53.760;9.678;2023-01-16T00:36:11;6.30;;;4.10;;
65373;SDS011;52070;53.760;9.678;2023-01-16T00:38:38;10.25;;;4.95;;
65373;SDS011;52070;53.760;9.678;2023-01-16T00:41:05;8.98;;;4.10;;
65373;SDS011;52070;53.760;9.678;2023-01-16T00:43:34;7.60;;;4.32;;
65373;SDS011;52070;53.760;9.678;2023-01-16T00:46:01;9.90;;;4.35;;
65373;SDS011;52070;53.760;9.678;2023-01-16T00:48:28;10.27;;;4.20;;
65373;SDS011;52070;53.760;9.678;2023-01-16T00:50:55;9.10;;;4.93;;
65373;SDS011;52070;53.760;9.678;2023-01-16T00:53:22;6.60;;;4.20;;
65373;SDS011;52070;53.760;9.678;2023-01-16T00:55:50;9.13;;;4.32;;
65373;SDS011;52070;53.760;9.678;2023-01-16T00:58:17;10.60;;;4.45;;
65373;SDS011;52070;53.760;9.678;2023-01-16T01:00:46;9.15;;;4.40;;
65373;SDS011;52070;53.760;9.678;2023-01-16T01:03:13;9.75;;;4.40;;
65373;SDS011;52070;53.760;9.678;2023-01-16T01:05:40;7.95;;;4.47;;
65373;SDS011;52070;53.760;9.678;2023-01-16T01:08:07;10.35;;;4.78;;
65373;SDS011;52070;53.760;9.678;2023-01-16T01:10:35;10.55;;;4.43;;
65373;SDS011;52070;53.760;9.678;2023-01-16T01:13:03;8.68;;;4.00;;
65373;SDS011;52070;53.760;9.678;2023-01-16T01:15:30;9.32;;;4.30;;
65373;SDS011;52070;53.760;9.678;2023-01-16T01:17:59;7.38;;;3.97;;
65373;SDS011;52070;53.760;9.678;2023-01-16T01:20:26;5.20;;;3.88;;
65373;SDS011;52070;53.760;9.678;2023-01-16T01:22:53;8.27;;;4.15;;
65373;SDS011;52070;53.760;9.678;2023-01-16T01:25:20;7.80;;;4.00;;
65373;SDS011;52070;53.760;9.678;2023-01-16T01:27:47;6.93;;;3.55;;
65373;SDS011;52070;53.760;9.678;2023-01-16T01:30:14;11.13;;;4.22;;
65373;SDS011;52070;53.760;9.678;2023-01-16T01:32:42;10.55;;;3.60;;
65373;SDS011;52070;53.760;9.678;2023-01-16T01:35:10;6.80;;;3.30;;
65373;SDS011;52070;53.760;9.678;2023-01-16T01:37:37;9.63;;;3.42;;
65373;SDS011;52070;53.760;9.678;2023-01-16T01:40:04;6.68;;;3.25;;
65373;SDS011;52070;53.760;9.678;2023-01-16T01:42:36;6.82;;;2.90;;
65373;SDS011;52070;53.760;9.678;2023-01-16T01:45:11;10.18;;;3.28;;
65373;SDS011;52070;53.760;9.678;2023-01-16T01:47:44;8.30;;;2.95;;
65373;SDS011;52070;53.760;9.678;2023-01-16T01:50:17;9.05;;;2.88;;
65373;SDS011;52070;53.760;9.678;2023-01-16T01:52:50;9.02;;;2.78;;
65373;SDS011;52070;53.760;9.678;2023-01-16T01:55:18;7.70;;;2.78;;
65373;SDS011;52070;53.760;9.678;2023-01-16T01:57:48;6.88;;;2.33;;
65373;SDS011;52070;53.760;9.678;2023-01-16T02:00:18;5.22;;;2.17;;
65373;SDS011;52070;53.760;9.678;2023-01-16T02:02:48;5.88;;;2.15;;
65373;SDS011;52070;53.760;9.678;2023-01-16T02:05:21;5.07;;;2.13;;
65373;SDS011;52070;53.760;9.678;2023-01-16T02:07:51;4.60;;;1.63;;
65373;SDS011;52070;53.760;9.678;2023-01-16T02:10:20;6.68;;;2.10;;
65373;SDS011;52070;53.760;9.678;2023-01-16T02:12:52;9.00;;;2.15;;
65373;SDS011;52070;53.760;9.678;2023-01-16T02:15:20;8.43;;;1.90;;
65373;SDS011;52070;53.760;9.678;2023-01-16T02:17:48;6.18;;;1.92;;
65373;SDS011;52070;53.760;9.678;2023-01-16T02:20:36;7.65;;;1.85;;
65373;SDS011;52070;53.760;9.678;2023-01-16T02:26:32;9.70;;;2.00;;
65373;SDS011;52070;53.760;9.678;2023-01-16T02:29:13;5.60;;;1.95;;
65373;SDS011;52070;53.760;9.678;2023-01-16T02:32:15;13.02;;;2.30;;
65373;SDS011;52070;53.760;9.678;2023-01-16T02:34:56;7.70;;;2.10;;
65373;SDS011;52070;53.760;9.678;2023-01-16T02:37:44;8.27;;;2.15;;
65373;SDS011;52070;53.760;9.678;2023-01-16T02:40:17;11.32;;;2.03;;
65373;SDS011;52070;53.760;9.678;2023-01-16T02:42:54;6.75;;;2.00;;
65373;SDS011;52070;53.760;9.678;2023-01-16T02:45:31;6.60;;;2.25;;
65373;SDS011;52070;53.760;9.678;2023-01-16T02:48:10;8.10;;;1.90;;
65373;SDS011;52070;53.760;9.678;2023-01-16T02:50:47;4.15;;;1.60;;
65373;SDS011;52070;53.760;9.678;2023-01-16T02:53:22;5.43;;;1.80;;
65373;SDS011;52070;53.760;9.678;2023-01-16T02:55:54;4.40;;;1.85;;
65373;SDS011;52070;53.760;9.678;2023-01-16T02:58:28;5.03;;;1.58;;
65373;SDS011;52070;53.760;9.678;2023-01-16T03:00:57;6.88;;;1.88;;
65373;SDS011;52070;53.760;9.678;2023-01-16T03:03:37;7.07;;;2.00;;
65373;SDS011;52070;53.760;9.678;2023-01-16T03:06:10;7.80;;;2.00;;
65373;SDS011;52070;53.760;9.678;2023-01-16T03:08:44;6.43;;;1.70;;
65373;SDS011;52070;53.760;9.678;2023-01-16T03:11:17;4.35;;;1.80;;
65373;SDS011;52070;53.760;9.678;2023-01-16T03:14:03;4.40;;;1.95;;
65373;SDS011;52070;53.760;9.678;2023-01-16T03:17:00;3.60;;;2.10;;
65373;SDS011;52070;53.760;9.678;2023-01-16T03:19:43;4.03;;;2.10;;
65373;SDS011;52070;53.760;9.678;2023-01-16T03:22:23;4.97;;;2.05;;
65373;SDS011;52070;53.760;9.678;2023-01-16T03:24:59;4.68;;;2.50;;
65373;SDS011;52070;53.760;9.678;2023-01-16T03:27:39;6.65;;;2.85;;
65373;SDS011;52070;53.760;9.678;2023-01-16T03:30:17;5.35;;;2.15;;
65373;SDS011;52070;53.760;9.678;2023-01-16T03:32:51;8.40;;;2.40;;
65373;SDS011;52070;53.760;9.678;2023-01-16T03:35:25;4.20;;;2.00;;
65373;SDS011;52070;53.760;9.678;2023-01-16T03:37:55;6.90;;;2.13;;
65373;SDS011;52070;53.760;9.678;2023-01-16T03:40:28;3.97;;;2.10;;
65373;SDS011;52070;53.760;9.678;2023-01-16T03:45:28;4.43;;;2.03;;
65373;SDS011;52070;53.760;9.678;2023-01-16T03:48:05;4.95;;;1.73;;
65373;SDS011;52070;53.760;9.678;2023-01-16T03:50:37;5.55;;;2.00;;
65373;SDS011;52070;53.760;9.678;2023-01-16T03:53:08;5.70;;;2.15;;
65373;SDS011;52070;53.760;9.678;2023-01-16T03:55:39;6.13;;;1.80;;
65373;SDS011;52070;53.760;9.678;2023-01-16T03:58:13;7.20;;;1.98;;
65373;SDS011;52070;53.760;9.678;2023-01-16T04:00:47;10.57;;;2.20;;
65373;SDS011;52070;53.760;9.678;2023-01-16T04:03:19;2.95;;;1.40;;
65373;SDS011;52070;53.760;9.678;2023-01-16T04:05:54;7.38;;;1.95;;
65373;SDS011;52070;53.760;9.678;2023-01-16T04:08:27;5.00;;;1.40;;
65373;SDS011;52070;53.760;9.678;2023-01-16T04:10:57;7.97;;;2.13;;
65373;SDS011;52070;53.760;9.678;2023-01-16T04:13:25;4.50;;;1.70;;
65373;SDS011;52070;53.760;9.678;2023-01-16T04:15:56;4.43;;;1.40;;
65373;SDS011;52070;53.760;9.678;2023-01-16T04:18:28;4.75;;;1.60;;
65373;SDS011;52070;53.760;9.678;2023-01-16T04:20:59;5.50;;;1.50;;
65373;SDS011;52070;53.760;9.678;2023-01-16T04:23:26;4.75;;;1.45;;
65373;SDS011;52070;53.760;9.678;2023-01-16T04:25:53;4.53;;;1.58;;
65373;SDS011;52070;53.760;9.678;2023-01-16T04:28:20;3.13;;;1.52;;
65373;SDS011;52070;53.760;9.678;2023-01-16T04:30:47;5.43;;;1.95;;
65373;SDS011;52070;53.760;9.678;2023-01-16T04:33:14;4.55;;;1.52;;
65373;SDS011;52070;53.760;9.678;2023-01-16T04:35:41;4.63;;;1.45;;
65373;SDS011;52070;53.760;9.678;2023-01-16T04:38:09;6.60;;;1.55;;
65373;SDS011;52070;53.760;9.678;2023-01-16T04:40:37;4.78;;;1.65;;
65373;SDS011;52070;53.760;9.678;2023-01-16T04:43:04;2.42;;;1.33;;
65373;SDS011;52070;53.760;9.678;2023-01-16T04:45:31;1.88;;;1.15;;
65373;SDS011;52070;53.760;9.678;2023-01-16T04:47:58;9.98;;;1.50;;
65373;SDS011;52070;53.760;9.678;2023-01-16T04:50:25;6.88;;;1.50;;
65373;SDS011;52070;53.760;9.678;2023-01-16T04:52:52;4.07;;;1.40;;
65373;SDS011;52070;53.760;9.678;2023-01-16T04:55:21;9.52;;;1.48;;
65373;SDS011;52070;53.760;9.678;2023-01-16T04:57:48;2.28;;;1.30;;
65373;SDS011;52070;53.760;9.678;2023-01-16T05:00:15;5.28;;;1.20;;
65373;SDS011;52070;53.760;9.678;2023-01-16T05:02:42;6.93;;;1.33;;
65373;SDS011;52070;53.760;9.678;2023-01-16T05:05:09;5.70;;;1.42;;
65373;SDS011;52070;53.760;9.678;2023-01-16T05:07:36;3.35;;;1.25;;
65373;SDS011;52070;53.760;9.678;2023-01-16T05:10:03;3.92;;;1.35;;
65373;SDS011;52070;53.760;9.678;2023-01-16T05:12:32;4.75;;;1.60;;
65373;SDS011;52070;53.760;9.678;2023-01-16T05:14:59;6.85;;;1.38;;
65373;SDS011;52070;53.760;9.678;2023-01-16T05:17:26;5.05;;;1.25;;
65373;SDS011;52070;53.760;9.678;2023-01-16T05:19:53;2.97;;;1.17;;
65373;SDS011;52070;53.760;9.678;2023-01-16T05:22:20;7.05;;;1.30;;
65373;SDS011;52070;53.760;9.678;2023-01-16T05:24:47;6.80;;;1.20;;
65373;SDS011;52070;53.760;9.678;2023-01-16T05:27:14;4.03;;;1.20;;
65373;SDS011;52070;53.760;9.678;2023-01-16T05:29:42;4.00;;;1.08;;
65373;SDS011;52070;53.760;9.678;2023-01-16T05:32:09;4.03;;;0.98;;
65373;SDS011;52070;53.760;9.678;2023-01-16T05:34:36;4.13;;;1.17;;
65373;SDS011;52070;53.760;9.678;2023-01-16T05:37:03;3.50;;;1.20;;
65373;SDS011;52070;53.760;9.678;2023-01-16T05:39:30;3.28;;;1.30;;
65373;SDS011;52070;53.760;9.678;2023-01-16T05:41:56;2.30;;;0.90;;
65373;SDS011;52070;53.760;9.678;2023-01-16T05:44:23;3.92;;;1.00;;
65373;SDS011;52070;53.760;9.678;2023-01-16T05:46:52;4.78;;;1.67;;
65373;SDS011;52070;53.760;9.678;2023-01-16T05:49:19;3.17;;;1.10;;
65373;SDS011;52070;53.760;9.678;2023-01-16T05:51:46;2.95;;;0.93;;
65373;SDS011;52070;53.760;9.678;2023-01-16T05:54:12;2.72;;;1.13;;
65373;SDS011;52070;53.760;9.678;2023-01-16T05:56:39;6.78;;;1.27;;
65373;SDS011;52070;53.760;9.678;2023-01-16T05:59:08;2.83;;;1.02;;
65373;SDS011;52070;53.760;9.678;2023-01-16T06:01:35;6.40;;;1.17;;
65373;SDS011;52070;53.760;9.678;2023-01-16T06:04:04;6.65;;;1.08;;
65373;SDS011;52070;53.760;9.678;2023-01-16T06:06:31;5.32;;;1.20;;
65373;SDS011;52070;53.760;9.678;2023-01-16T06:08:58;3.45;;;1.13;;
65373;SDS011;52070;53.760;9.678;2023-01-16T06:11:25;6.57;;;1.10;;
65373;SDS011;52070;53.760;9.678;2023-01-16T06:13:51;4.53;;;1.00;;
65373;SDS011;52070;53.760;9.678;2023-01-16T06:16:18;4.07;;;1.10;;
65373;SDS011;52070;53.760;9.678;2023-01-16T06:18:48;5.22;;;1.20;;
65373;SDS011;52070;53.760;9.678;2023-01-16T06:21:16;4.88;;;0.90;;
65373;SDS011;52070;53.760;9.678;2023-01-16T06:23:43;4.88;;;1.13;;
65373;SDS011;52070;53.760;9.678;2023-01-16T06:26:10;3.58;;;0.90;;
65373;SDS011;52070;53.760;9.678;2023-01-16T06:28:37;4.80;;;0.93;;
65373;SDS011;52070;53.760;9.678;2023-01-16T06:31:04;1.55;;;0.80;;
65373;SDS011;52070;53.760;9.678;2023-01-16T06:33:32;3.75;;;0.90;;
65373;SDS011;52070;53.760;9.678;2023-01-16T06:35:59;3.55;;;1.13;;
65373;SDS011;52070;53.760;9.678;2023-01-16T06:38:28;4.28;;;0.98;;
65373;SDS011;52070;53.760;9.678;2023-01-16T06:40:55;6.18;;;0.90;;
65373;SDS011;52070;53.760;9.678;2023-01-16T06:43:22;4.63;;;0.90;;
65373;SDS011;52070;53.760;9.678;2023-01-16T06:45:49;3.88;;;1.10;;
65373;SDS011;52070;53.760;9.678;2023-01-16T06:48:16;3.80;;;1.20;;
65373;SDS011;52070;53.760;9.678;2023-01-16T06:50:43;3.72;;;1.10;;
65373;SDS011;52070;53.760;9.678;2023-01-16T06:53:11;4.32;;;1.10;;
65373;SDS011;52070;53.760;9.678;2023-01-16T06:55:39;3.50;;;1.30;;
65373;SDS011;52070;53.760;9.678;2023-01-16T06:58:08;4.05;;;1.08;;
65373;SDS011;52070;53.760;9.678;2023-01-16T07:00:35;3.47;;;1.15;;
65373;SDS011;52070;53.760;9.678;2023-01-16T07:03:02;4.35;;;1.00;;
65373;SDS011;52070;53.760;9.678;2023-01-16T07:05:30;4.57;;;1.10;;
65373;SDS011;52070;53.760;9.678;2023-01-16T07:07:57;3.22;;;1.05;;
65373;SDS011;52070;53.760;9.678;2023-01-16T07:10:25;5.25;;;1.00;;
65373;SDS011;52070;53.760;9.678;2023-01-16T07:12:53;5.68;;;1.05;;
65373;SDS011;52070;53.760;9.678;2023-01-16T07:15:20;5.40;;;1.15;;
65373;SDS011;52070;53.760;9.678;2023-01-16T07:18:05;4.70;;;1.10;;
65373;SDS011;52070;53.760;9.678;2023-01-16T07:20:53;2.40;;;0.90;;
65373;SDS011;52070;53.760;9.678;2023-01-16T07:23:40;4.18;;;1.05;;
65373;SDS011;52070;53.760;9.678;2023-01-16T07:26:10;3.70;;;1.02;;
65373;SDS011;52070;53.760;9.678;2023-01-16T07:28:42;3.75;;;1.08;;
65373;SDS011;52070;53.760;9.678;2023-01-16T07:31:09;6.90;;;1.30;;
65373;SDS011;52070;53.760;9.678;2023-01-16T07:33:36;6.00;;;1.42;;
65373;SDS011;52070;53.760;9.678;2023-01-16T07:36:03;4.25;;;1.05;;
65373;SDS011;52070;53.760;9.678;2023-01-16T07:38:31;4.60;;;1.10;;
65373;SDS011;52070;53.760;9.678;2023-01-16T07:40:58;1.92;;;1.00;;
65373;SDS011;52070;53.760;9.678;2023-01-16T07:43:25;8.52;;;1.10;;
65373;SDS011;52070;53.760;9.678;2023-01-16T07:45:53;8.85;;;1.25;;
65373;SDS011;52070;53.760;9.678;2023-01-16T07:48:20;5.22;;;1.10;;
65373;SDS011;52070;53.760;9.678;2023-01-16T07:50:49;2.83;;;1.00;;
65373;SDS011;52070;53.760;9.678;2023-01-16T07:53:17;4.00;;;0.93;;
65373;SDS011;52070;53.760;9.678;2023-01-16T07:55:47;2.50;;;0.80;;
65373;SDS011;52070;53.760;9.678;2023-01-16T07:58:15;1.73;;;0.90;;
65373;SDS011;52070;53.760;9.678;2023-01-16T08:00:42;5.82;;;1.00;;
65373;SDS011;52070;53.760;9.678;2023-01-16T08:03:10;3.88;;;1.15;;
65373;SDS011;52070;53.760;9.678;2023-01-16T08:05:38;9.20;;;1.17;;
65373;SDS011;52070;53.760;9.678;2023-01-16T08:08:05;3.47;;;1.02;;
65373;SDS011;52070;53.760;9.678;2023-01-16T08:10:32;2.50;;;0.90;;
65373;SDS011;52070;53.760;9.678;2023-01-16T08:12:59;3.22;;;1.02;;
65373;SDS011;52070;53.760;9.678;2023-01-16T08:15:26;3.22;;;1.35;;
65373;SDS011;52070;53.760;9.678;2023-01-16T08:17:53;2.00;;;0.90;;
65373;SDS011;52070;53.760;9.678;2023-01-16T08:20:21;5.68;;;1.13;;
65373;SDS011;52070;53.760;9.678;2023-01-16T08:22:51;1.88;;;0.82;;
65373;SDS011;52070;53.760;9.678;2023-01-16T08:25:20;2.92;;;0.90;;
65373;SDS011;52070;53.760;9.678;2023-01-16T08:27:48;3.30;;;1.08;;
65373;SDS011;52070;53.760;9.678;2023-01-16T08:30:15;5.82;;;1.10;;
65373;SDS011;52070;53.760;9.678;2023-01-16T08:32:43;2.25;;;1.10;;
65373;SDS011;52070;53.760;9.678;2023-01-16T08:35:10;2.85;;;0.82;;
65373;SDS011;52070;53.760;9.678;2023-01-16T08:37:38;3.20;;;0.95;;
65373;SDS011;52070;53.760;9.678;2023-01-16T08:40:05;5.70;;;1.10;;
65373;SDS011;52070;53.760;9.678;2023-01-16T08:42:34;4.82;;;0.90;;
65373;SDS011;52070;53.760;9.678;2023-01-16T08:45:19;2.25;;;0.98;;
65373;SDS011;52070;53.760;9.678;2023-01-16T08:48:03;4.88;;;1.10;;
65373;SDS011;52070;53.760;9.678;2023-01-16T08:50:48;4.55;;;1.10;;
65373;SDS011;52070;53.760;9.678;2023-01-16T08:53:34;3.30;;;1.10;;
65373;SDS011;52070;53.760;9.678;2023-01-16T08:56:01;2.10;;;1.08;;
65373;SDS011;52070;53.760;9.678;2023-01-16T08:58:28;4.47;;;1.20;;
65373;SDS011;52070;53.760;9.678;2023-01-16T09:00:56;3.15;;;1.08;;
65373;SDS011;52070;53.760;9.678;2023-01-16T09:03:23;2.35;;;0.90;;
65373;SDS011;52070;53.760;9.678;2023-01-16T09:05:50;6.10;;;1.20;;
65373;SDS011;52070;53.760;9.678;2023-01-16T09:08:17;2.60;;;1.30;;
65373;SDS011;52070;53.760;9.678;2023-01-16T09:10:45;1.60;;;0.98;;
65373;SDS011;52070;53.760;9.678;2023-01-16T09:13:26;4.13;;;1.10;;
65373;SDS011;52070;53.760;9.678;2023-01-16T09:16:10;5.55;;;0.98;;
65373;SDS011;52070;53.760;9.678;2023-01-16T09:18:37;2.90;;;1.05;;
65373;SDS011;52070;53.760;9.678;2023-01-16T09:21:04;4.15;;;0.98;;
65373;SDS011;52070;53.760;9.678;2023-01-16T09:23:31;3.45;;;0.90;;
65373;SDS011;52070;53.760;9.678;2023-01-16T09:25:59;4.70;;;1.10;;
65373;SDS011;52070;53.760;9.678;2023-01-16T09:28:26;3.85;;;1.02;;
65373;SDS011;52070;53.760;9.678;2023-01-16T09:30:53;2.92;;;1.20;;
65373;SDS011;52070;53.760;9.678;2023-01-16T09:33:21;8.13;;;1.15;;
65373;SDS011;52070;53.760;9.678;2023-01-16T09:35:47;1.92;;;0.90;;
65373;SDS011;52070;53.760;9.678;2023-01-16T09:38:14;7.18;;;1.20;;
65373;SDS011;52070;53.760;9.678;2023-01-16T09:40:43;3.22;;;1.02;;
65373;SDS011;52070;53.760;9.678;2023-01-16T09:43:21;4.05;;;1.15;;
65373;SDS011;52070;53.760;9.678;2023-01-16T09:46:05;2.42;;;1.00;;
65373;SDS011;52070;53.760;9.678;2023-01-16T09:48:38;3.80;;;1.00;;
65373;SDS011;52070;53.760;9.678;2023-01-16T09:51:13;3.00;;;0.98;;
65373;SDS011;52070;53.760;9.678;2023-01-16T09:53:44;3.67;;;1.02;;
65373;SDS011;52070;53.760;9.678;2023-01-16T09:56:33;3.00;;;1.00;;
65373;SDS011;52070;53.760;9.678;2023-01-16T09:59:35;5.45;;;1.20;;
65373;SDS011;52070;53.760;9.678;2023-01-16T10:02:07;4.03;;;1.15;;
65373;SDS011;52070;53.760;9.678;2023-01-16T10:04:41;1.30;;;1.13;;
65373;SDS011;52070;53.760;9.678;2023-01-16T10:10:19;3.80;;;1.33;;
65373;SDS011;52070;53.760;9.678;2023-01-16T10:12:59;2.83;;;1.30;;
65373;SDS011;52070;53.760;9.678;2023-01-16T10:15:34;4.47;;;1.20;;
65373;SDS011;52070;53.760;9.678;2023-01-16T10:18:11;4.03;;;1.15;;
65373;SDS011;52070;53.760;9.678;2023-01-16T10:20:49;2.45;;;1.15;;
65373;SDS011;52070;53.760;9.678;2023-01-16T10:23:31;3.55;;;1.40;;
65373;SDS011;52070;53.760;9.678;2023-01-16T10:26:08;3.92;;;1.15;;
65373;SDS011;52070;53.760;9.678;2023-01-16T10:28:46;5.75;;;1.48;;
65373;SDS011;52070;53.760;9.678;2023-01-16T10:33:54;3.70;;;1.23;;
65373;SDS011;52070;53.760;9.678;2023-01-16T10:36:24;3.35;;;1.08;;
65373;SDS011;52070;53.760;9.678;2023-01-16T10:38:56;2.72;;;0.85;;
65373;SDS011;52070;53.760;9.678;2023-01-16T10:41:30;4.85;;;1.33;;
65373;SDS011;52070;53.760;9.678;2023-01-16T10:44:23;2.50;;;1.00;;
65373;SDS011;52070;53.760;9.678;2023-01-16T10:47:15;3.05;;;1.30;;
65373;SDS011;52070;53.760;9.678;2023-01-16T10:50:02;3.28;;;1.00;;
65373;SDS011;52070;53.760;9.678;2023-01-16T10:52:30;3.28;;;1.08;;
65373;SDS011;52070;53.760;9.678;2023-01-16T10:54:58;2.65;;;1.10;;
65373;SDS011;52070;53.760;9.678;2023-01-16T10:57:27;4.90;;;1.42;;
65373;SDS011;52070;53.760;9.678;2023-01-16T10:59:54;5.10;;;0.90;;
65373;SDS011;52070;53.760;9.678;2023-01-16T11:02:29;1.58;;;0.77;;
65373;SDS011;52070;53.760;9.678;2023-01-16T11:04:58;2.22;;;1.02;;
65373;SDS011;52070;53.760;9.678;2023-01-16T11:07:27;2.85;;;0.98;;
65373;SDS011;52070;53.760;9.678;2023-01-16T11:09:55;2.72;;;1.17;;
65373;SDS011;52070;53.760;9.678;2023-01-16T11:12:26;2.78;;;0.90;;
65373;SDS011;52070;53.760;9.678;2023-01-16T11:15:14;3.90;;;1.08;;
65373;SDS011;52070;53.760;9.678;2023-01-16T11:18:21;3.33;;;1.15;;
65373;SDS011;52070;53.760;9.678;2023-01-16T11:20:56;2.40;;;0.77;;
65373;SDS011;52070;53.760;9.678;2023-01-16T11:23:26;2.42;;;1.05;;
65373;SDS011;52070;53.760;9.678;2023-01-16T11:26:00;3.17;;;1.10;;
65373;SDS011;52070;53.760;9.678;2023-01-16T11:28:28;4.03;;;1.10;;
65373;SDS011;52070;53.760;9.678;2023-01-16T11:30:57;4.03;;;1.10;;
65373;SDS011;52070;53.760;9.678;2023-01-16T11:33:33;1.40;;;1.00;;
65373;SDS011;52070;53.760;9.678;2023-01-16T11:36:04;3.38;;;1.00;;
65373;SDS011;52070;53.760;9.678;2023-01-16T11:38:33;2.63;;;0.90;;
65373;SDS011;52070;53.760;9.678;2023-01-16T11:41:01;2.28;;;1.00;;
65373;SDS011;52070;53.760;9.678;2023-01-16T11:43:31;3.33;;;0.90;;
65373;SDS011;52070;53.760;9.678;2023-01-16T11:46:21;3.70;;;1.02;;
65373;SDS011;52070;53.760;9.678;2023-01-16T11:48:59;3.03;;;1.00;;
65373;SDS011;52070;53.760;9.678;2023-01-16T11:51:29;2.20;;;0.90;;
65373;SDS011;52070;53.760;9.678;2023-01-16T11:53:57;0.93;;;0.80;;
65373;SDS011;52070;53.760;9.678;2023-01-16T11:59:16;3.42;;;1.30;;
65373;SDS011;52070;53.760;9.678;2023-01-16T12:01:53;3.63;;;1.10;;
65373;SDS011;52070;53.760;9.678;2023-01-16T12:04:51;4.40;;;1.30;;
65373;SDS011;52070;53.760;9.678;2023-01-16T12:07:47;2.55;;;1.35;;
65373;SDS011;52070;53.760;9.678;2023-01-16T12:10:28;2.80;;;1.15;;
65373;SDS011;52070;53.760;9.678;2023-01-16T12:13:04;3.55;;;1.30;;
65373;SDS011;52070;53.760;9.678;2023-01-16T12:15:54;1.83;;;1.00;;
65373;SDS011;52070;53.760;9.678;2023-01-16T12:18:30;5.60;;;1.27;;
65373;SDS011;52070;53.760;9.678;2023-01-16T12:21:07;5.03;;;1.45;;
65373;SDS011;52070;53.760;9.678;2023-01-16T12:23:48;2.78;;;1.13;;
65373;SDS011;52070;53.760;9.678;2023-01-16T12:26:21;4.32;;;1.40;;
65373;SDS011;52070;53.760;9.678;2023-01-16T12:28:55;5.13;;;1.17;;
65373;SDS011;52070;53.760;9.678;2023-01-16T12:31:36;3.63;;;0.90;;
65373;SDS011;52070;53.760;9.678;2023-01-16T12:34:29;4.63;;;1.00;;
65373;SDS011;52070;53.760;9.678;2023-01-16T12:37:24;3.95;;;1.20;;
65373;SDS011;52070;53.760;9.678;2023-01-16T12:40:04;1.85;;;0.90;;
65373;SDS011;52070;53.760;9.678;2023-01-16T12:42:47;2.65;;;0.90;;
65373;SDS011;52070;53.760;9.678;2023-01-16T12:45:39;3.00;;;1.33;;
65373;SDS011;52070;53.760;9.678;2023-01-16T12:48:14;4.80;;;1.20;;
65373;SDS011;52070;53.760;9.678;2023-01-16T12:50:54;7.10;;;1.25;;
65373;SDS011;52070;53.760;9.678;2023-01-16T12:53:38;3.88;;;1.02;;
65373;SDS011;52070;53.760;9.678;2023-01-16T12:56:24;1.25;;;0.75;;
65373;SDS011;52070;53.760;9.678;2023-01-16T12:59:02;3.13;;;1.00;;
65373;SDS011;52070;53.760;9.678;2023-01-16T13:01:35;2.97;;;1.25;;
65373;SDS011;52070;53.760;9.678;2023-01-16T13:04:07;3.88;;;1.20;;
65373;SDS011;52070;53.760;9.678;2023-01-16T13:06:39;4.35;;;1.00;;
65373;SDS011;52070;53.760;9.678;2023-01-16T13:09:14;2.42;;;1.10;;
65373;SDS011;52070;53.760;9.678;2023-01-16T13:11:51;3.90;;;0.93;;
65373;SDS011;52070;53.760;9.678;2023-01-16T13:14:42;5.88;;;1.23;;
65373;SDS011;52070;53.760;9.678;2023-01-16T13:17:12;3.83;;;1.42;;
65373;SDS011;52070;53.760;9.678;2023-01-16T13:19:45;3.25;;;1.08;;
65373;SDS011;52070;53.760;9.678;2023-01-16T13:22:19;2.70;;;1.00;;
65373;SDS011;52070;53.760;9.678;2023-01-16T13:24:53;2.60;;;0.80;;
65373;SDS011;52070;53.760;9.678;2023-01-16T13:27:24;2.45;;;1.08;;
65373;SDS011;52070;53.760;9.678;2023-01-16T13:30:03;3.92;;;1.48;;
65373;SDS011;52070;53.760;9.678;2023-01-16T13:32:36;3.33;;;1.58;;
65373;SDS011;52070;53.760;9.678;2023-01-16T13:35:07;4.68;;;1.30;;
65373;SDS011;52070;53.760;9.678;2023-01-16T13:37:46;2.75;;;1.48;;
65373;SDS011;52070;53.760;9.678;2023-01-16T13:40:39;2.15;;;1.15;;
65373;SDS011;52070;53.760;9.678;2023-01-16T13:43:20;8.35;;;1.00;;
65373;SDS011;52070;53.760;9.678;2023-01-16T13:46:17;3.83;;;1.00;;
65373;SDS011;52070;53.760;9.678;2023-01-16T13:48:49;4.47;;;1.05;;
65373;SDS011;52070;53.760;9.678;2023-01-16T13:51:20;2.88;;;1.05;;
65373;SDS011;52070;53.760;9.678;2023-01-16T13:53:49;2.20;;;1.13;;
65373;SDS011;52070;53.760;9.678;2023-01-16T13:56:20;2.47;;;1.00;;
65373;SDS011;52070;53.760;9.678;2023-01-16T13:58:49;1.90;;;0.90;;
65373;SDS011;52070;53.760;9.678;2023-01-16T14:01:31;3.58;;;1.20;;
65373;SDS011;52070;53.760;9.678;2023-01-16T14:04:15;1.95;;;1.15;;
65373;SDS011;52070;53.760;9.678;2023-01-16T14:06:53;0.90;;;0.85;;
65373;SDS011;52070;53.760;9.678;2023-01-16T14:12:34;4.47;;;1.50;;
65373;SDS011;52070;53.760;9.678;2023-01-16T14:15:15;2.28;;;0.90;;
65373;SDS011;52070;53.760;9.678;2023-01-16T14:18:08;2.88;;;1.20;;
65373;SDS011;52070;53.760;9.678;2023-01-16T14:20:42;4.32;;;1.40;;
65373;SDS011;52070;53.760;9.678;2023-01-16T14:23:21;4.45;;;1.20;;
65373;SDS011;52070;53.760;9.678;2023-01-16T14:26:08;6.72;;;1.33;;
65373;SDS011;52070;53.760;9.678;2023-01-16T14:28:43;6.03;;;1.58;;
65373;SDS011;52070;53.760;9.678;2023-01-16T14:31:18;3.08;;;1.10;;
65373;SDS011;52070;53.760;9.678;2023-01-16T14:33:48;3.58;;;1.10;;
65373;SDS011;52070;53.760;9.678;2023-01-16T14:36:15;4.70;;;1.20;;
65373;SDS011;52070;53.760;9.678;2023-01-16T14:38:46;3.75;;;1.10;;
65373;SDS011;52070;53.760;9.678;2023-01-16T14:41:14;1.95;;;1.00;;
65373;SDS011;52070;53.760;9.678;2023-01-16T14:44:11;3.45;;;1.25;;
65373;SDS011;52070;53.760;9.678;2023-01-16T14:47:08;4.85;;;1.20;;
65373;SDS011;52070;53.760;9.678;2023-01-16T14:49:58;5.38;;;1.38;;
65373;SDS011;52070;53.760;9.678;2023-01-16T14:52:50;5.18;;;1.17;;
65373;SDS011;52070;53.760;9.678;2023-01-16T14:55:48;3.85;;;1.40;;
65373;SDS011;52070;53.760;9.678;2023-01-16T14:58:22;4.40;;;1.05;;
65373;SDS011;52070;53.760;9.678;2023-01-16T15:00:56;3.33;;;1.15;;
65373;SDS011;52070;53.760;9.678;2023-01-16T15:03:50;3.08;;;1.10;;
65373;SDS011;52070;53.760;9.678;2023-01-16T15:06:18;2.20;;;1.20;;
65373;SDS011;52070;53.760;9.678;2023-01-16T15:08:46;3.15;;;1.27;;
65373;SDS011;52070;53.760;9.678;2023-01-16T15:11:19;4.07;;;1.20;;
65373;SDS011;52070;53.760;9.678;2023-01-16T15:17:00;2.60;;;1.00;;
65373;SDS011;52070;53.760;9.678;2023-01-16T15:20:05;4.40;;;1.20;;
65373;SDS011;52070;53.760;9.678;2023-01-16T15:22:57;7.47;;;1.35;;
65373;SDS011;52070;53.760;9.678;2023-01-16T15:25:31;4.95;;;1.30;;
65373;SDS011;52070;53.760;9.678;2023-01-16T15:28:22;3.80;;;1.40;;
65373;SDS011;52070;53.760;9.678;2023-01-16T15:30:57;3.95;;;1.60;;
65373;SDS011;52070;53.760;9.678;2023-01-16T15:41:44;3.55;;;1.25;;
65373;SDS011;52070;53.760;9.678;2023-01-16T15:44:30;4.15;;;1.10;;
65373;SDS011;52070;53.760;9.678;2023-01-16T15:47:25;3.42;;;1.30;;
65373;SDS011;52070;53.760;9.678;2023-01-16T15:50:12;4.95;;;1.40;;
65373;SDS011;52070;53.760;9.678;2023-01-16T15:52:48;3.28;;;1.40;;